createdAt,value
2023-04-23T00:13:00.450Z,97736.31
2023-04-23T00:33:03.100Z,97728.59
2023-04-23T00:53:05.812Z,97750.34
2023-04-23T01:13:08.432Z,97730.25
2023-04-23T01:33:11.878Z,97723.44
2023-04-23T06:17:50.195Z,97709.53
2023-04-23T06:37:52.843Z,97714.63
2023-04-23T06:57:58.583Z,97707.37
2023-04-23T07:18:01.311Z,97703.09
2023-04-23T07:38:04.066Z,97693.09
2023-04-23T07:58:06.752Z,97683.03
2023-04-23T08:18:09.378Z,97670.66
2023-04-23T08:38:12.043Z,97654.34
2023-04-23T08:58:14.743Z,97651.25
2023-04-23T09:18:17.363Z,97631.84
2023-04-23T09:38:20.007Z,97619.75
2023-04-23T09:58:22.650Z,97593.91
2023-04-23T10:18:25.358Z,97589.06
2023-04-23T10:38:29.604Z,97553.47
2023-04-23T10:58:32.261Z,97528.38
2023-04-23T11:18:36.647Z,97517.28
2023-04-23T11:38:40.162Z,97506.28
2023-04-23T11:58:42.983Z,97485.00
2023-04-23T12:18:47.058Z,97476.91
2023-04-23T12:38:49.885Z,97479.44
2023-04-23T12:58:52.645Z,97448.72
2023-04-23T13:18:55.326Z,97445.22
2023-04-23T13:38:57.969Z,97429.03
2023-04-23T13:59:19.004Z,97417.47
2023-04-23T14:19:24.714Z,97393.44
2023-04-23T14:39:28.202Z,97368.56
2023-04-23T14:59:30.897Z,97372.13
2023-04-23T15:19:34.275Z,97353.38
2023-04-23T15:39:37.134Z,97353.38
2023-04-23T15:59:40.087Z,97340.44
2023-04-23T16:19:44.397Z,97332.34
2023-04-23T16:39:47.410Z,97324.66
2023-04-23T16:59:50.803Z,97310.00
2023-04-23T17:19:54.917Z,97314.47
2023-04-23T17:39:57.652Z,97304.38
2023-04-23T18:00:03.217Z,97310.34
2023-04-23T18:20:07.637Z,97310.78
2023-04-23T18:40:10.413Z,97343.31
2023-04-23T19:00:13.076Z,97348.63
2023-04-23T19:20:16.989Z,97348.87
2023-04-23T19:40:19.678Z,97343.63
2023-04-23T20:00:22.565Z,97334.06
2023-04-23T20:20:27.035Z,97327.31
2023-04-23T20:40:29.677Z,97321.47
2023-04-23T21:00:32.525Z,97324.03
2023-04-23T21:20:35.167Z,97325.34
2023-04-23T21:40:38.151Z,97317.91
2023-04-23T22:00:40.942Z,97312.78
2023-04-23T22:20:46.092Z,97307.59
2023-04-23T22:40:48.739Z,97304.78
2023-04-23T23:00:51.378Z,97288.53
2023-04-23T23:20:54.039Z,97272.84
2023-04-23T23:40:56.738Z,97266.25
